Time;durP1;ratioP1;P1;durP2;ratioP2;P2;SDS_P1;SDS_P2;PMS_P1;PMS_P2;Temp;Humidity;BMP_temperature;BMP_pressure;BME280_temperature;BME280_humidity;BME280_pressure;Samples;Min_cycle;Max_cycle;Signal;HPM_P1;HPM_P2
2023/05/21 00:02:24;;;;;;;14.40;12.90;;;;;;;16.05;52.31;99412.44;10467447;28;20664;-72
2023/05/21 00:07:26;;;;;;;14.73;13.13;;;;;;;16.61;52.09;99459.78;10475527;28;20674;-73
2023/05/21 00:12:28;;;;;;;15.40;12.97;;;;;;;16.71;51.76;99464.63;10451686;28;20322;-72
2023/05/21 00:17:29;;;;;;;16.33;13.03;;;;;;;16.12;53.02;99455.53;10479397;28;20219;-72
2023/05/21 00:22:32;;;;;;;17.43;13.60;;;;;;;16.09;52.02;99394.72;10473917;28;20726;-72
2023/05/21 00:27:33;;;;;;;14.80;12.47;;;;;;;16.05;52.11;99393.56;10478898;28;20242;-72
2023/05/21 00:32:35;;;;;;;14.37;12.20;;;;;;;16.87;51.08;99408.25;10475067;28;20314;-72
2023/05/21 00:37:37;;;;;;;15.80;12.50;;;;;;;17.23;51.19;99450.44;10478650;28;20322;-74
2023/05/21 00:42:40;;;;;;;14.87;13.13;;;;;;;16.03;52.82;99382.19;10478544;28;20318;-73
2023/05/21 00:47:42;;;;;;;13.90;12.50;;;;;;;15.58;52.92;99334.88;10476660;28;20235;-72
2023/05/21 00:52:44;;;;;;;14.70;13.17;;;;;;;17.10;51.08;99413.66;10479550;28;20232;-72
2023/05/21 00:57:46;;;;;;;16.60;13.53;;;;;;;17.35;51.20;99440.44;10478810;28;20251;-74
2023/05/21 01:02:49;;;;;;;16.07;13.03;;;;;;;15.74;52.77;99340.66;10475554;28;20330;-72
2023/05/21 01:07:51;;;;;;;14.53;12.90;;;;;;;15.96;52.37;99332.84;10480398;28;20258;-73
2023/05/21 01:12:56;;;;;;;14.73;12.70;;;;;;;16.20;52.35;99366.13;10476115;28;20878;-72
2023/05/21 01:17:58;;;;;;;15.40;13.57;;;;;;;16.33;53.12;99398.34;10479483;28;20227;-72
2023/05/21 01:23:00;;;;;;;15.60;13.47;;;;;;;16.61;52.30;99402.25;10477845;28;20242;-73
2023/05/21 01:28:02;;;;;;;16.33;12.97;;;;;;;16.96;51.91;99402.28;10480438;28;20854;-72
2023/05/21 01:33:11;;;;;;;16.90;13.53;;;;;;;16.75;52.33;99400.13;10474221;28;20231;-72
2023/05/21 01:38:16;;;;;;;16.57;12.53;;;;;;;16.55;52.03;99385.13;10478741;28;20227;-71
2023/05/21 01:43:19;;;;;;;15.80;12.77;;;;;;;16.56;50.99;99321.91;10477694;28;20765;-72
2023/05/21 01:48:24;;;;;;;14.73;12.47;;;;;;;16.80;50.71;99314.63;10468700;28;20311;-71
2023/05/21 01:53:26;;;;;;;19.87;12.73;;;;;;;17.69;50.20;99382.97;10476449;28;20323;-71
2023/05/21 01:58:27;;;;;;;15.40;13.40;;;;;;;17.48;50.05;99352.81;10479194;28;20226;-73
2023/05/21 02:03:30;;;;;;;15.17;12.83;;;;;;;16.54;52.07;99356.44;10474775;28;20249;-74
2023/05/21 02:08:32;;;;;;;18.50;13.87;;;;;;;16.38;51.83;99300.44;10473799;28;20965;-70
2023/05/21 02:13:41;;;;;;;14.90;13.20;;;;;;;16.41;51.89;99310.78;10474134;28;20235;-71
2023/05/21 02:18:42;;;;;;;14.20;12.70;;;;;;;16.96;51.24;99337.41;10469846;28;20239;-71
2023/05/21 02:23:44;;;;;;;13.73;12.33;;;;;;;17.39;50.54;99348.81;10467552;28;20239;-72
2023/05/21 02:28:46;;;;;;;14.30;11.80;;;;;;;15.92;52.87;99288.53;10473242;28;20753;-72
2023/05/21 02:33:48;;;;;;;14.60;12.67;;;;;;;16.98;51.16;99320.97;10467378;28;20274;-71
2023/05/21 02:38:50;;;;;;;15.80;12.70;;;;;;;16.19;53.13;99335.59;10472660;28;20238;-72
2023/05/21 02:43:51;;;;;;;15.80;13.17;;;;;;;16.39;52.31;99299.38;10475692;28;20231;-69
2023/05/21 02:48:53;;;;;;;14.27;12.63;;;;;;;17.17;51.09;99335.97;10474230;28;20237;-69
2023/05/21 02:53:55;;;;;;;14.93;12.43;;;;;;;17.53;50.18;99344.78;10477145;28;20226;-69
2023/05/21 02:58:56;;;;;;;15.83;13.33;;;;;;;16.36;52.63;99326.84;10478511;28;20238;-69
2023/05/21 03:03:58;;;;;;;14.50;12.23;;;;;;;17.17;51.11;99343.25;10474796;28;20239;-69
2023/05/21 03:09:00;;;;;;;15.37;12.27;;;;;;;16.05;52.43;99283.72;10475315;28;20255;-70
2023/05/21 03:14:02;;;;;;;14.87;12.10;;;;;;;16.05;52.77;99299.09;10474655;28;20636;-70
2023/05/21 03:19:03;;;;;;;15.03;11.93;;;;;;;17.36;51.05;99354.75;10476304;28;20585;-70
2023/05/21 03:24:06;;;;;;;16.63;12.83;;;;;;;17.64;50.15;99359.34;10469453;28;20224;-69
2023/05/21 03:29:07;;;;;;;13.53;12.13;;;;;;;17.25;50.71;99336.66;10469589;28;20250;-69
2023/05/21 03:34:09;;;;;;;13.50;12.10;;;;;;;17.57;49.88;99355.94;10468856;28;20315;-68
2023/05/21 03:39:11;;;;;;;15.47;12.40;;;;;;;16.66;51.17;99305.13;10468908;28;20224;-69
2023/05/21 03:44:12;;;;;;;13.10;11.73;;;;;;;17.30;49.78;99299.72;10472892;28;20602;-70
2023/05/21 03:49:14;;;;;;;15.53;12.83;;;;;;;17.39;50.39;99337.19;10479020;28;20254;-70
2023/05/21 03:54:16;;;;;;;14.27;12.37;;;;;;;17.12;50.63;99321.53;10474548;28;20223;-69
2023/05/21 03:59:17;;;;;;;13.70;12.17;;;;;;;17.85;49.07;99330.78;10476554;28;20310;-69
2023/05/21 04:04:19;;;;;;;12.60;11.30;;;;;;;17.18;50.31;99299.75;10480063;28;20231;-70
2023/05/21 04:09:21;;;;;;;16.47;12.40;;;;;;;16.25;51.59;99287.97;10478312;28;20236;-70
2023/05/21 04:14:22;;;;;;;15.63;12.83;;;;;;;15.60;53.34;99291.50;10482523;28;20230;-69
2023/05/21 04:19:24;;;;;;;15.93;13.67;;;;;;;17.36;51.03;99350.13;10479359;28;21139;-69
2023/05/21 04:24:26;;;;;;;14.10;12.33;;;;;;;15.34;53.77;99277.31;10483293;28;20243;-70
2023/05/21 04:29:28;;;;;;;14.37;12.87;;;;;;;17.20;51.10;99348.19;10472112;28;20943;-69
2023/05/21 04:34:32;;;;;;;14.53;12.47;;;;;;;17.20;50.02;99310.34;10463184;28;20241;-70
2023/05/21 04:39:34;;;;;;;16.17;13.03;;;;;;;17.17;51.58;99359.47;10478840;28;20993;-69
2023/05/21 04:44:39;;;;;;;18.00;14.60;;;;;;;17.59;50.28;99353.81;10474282;28;20227;-70
2023/05/21 04:49:41;;;;;;;17.23;15.40;;;;;;;17.04;50.36;99316.47;10475574;28;20239;-69
2023/05/21 04:54:44;;;;;;;18.93;15.67;;;;;;;18.57;48.98;99425.97;10478809;28;20230;-68
2023/05/21 04:59:46;;;;;;;17.70;15.43;;;;;;;16.36;52.40;99343.06;10475992;28;20243;-68
2023/05/21 05:04:48;;;;;;;18.57;15.53;;;;;;;17.14;51.39;99365.34;10482171;28;20322;-69
2023/05/21 05:09:50;;;;;;;18.07;14.97;;;;;;;17.48;50.39;99349.28;10479551;28;20721;-69
2023/05/21 05:14:51;;;;;;;14.87;13.37;;;;;;;17.97;49.89;99367.81;10473650;28;20254;-69
2023/05/21 05:19:53;;;;;;;16.40;13.83;;;;;;;18.91;47.87;99390.69;10479571;28;20231;-67
2023/05/21 05:24:55;;;;;;;15.70;13.40;;;;;;;18.06;49.55;99337.34;10480407;28;20929;-70
2023/05/21 05:29:56;;;;;;;20.90;14.27;;;;;;;18.06;49.68;99350.09;10476959;28;20621;-68
2023/05/21 05:34:58;;;;;;;14.73;13.13;;;;;;;18.70;49.17;99374.13;10475521;28;20234;-70
2023/05/21 05:40:04;;;;;;;15.57;13.27;;;;;;;18.58;48.90;99363.41;10476464;28;20326;-68
2023/05/21 05:45:06;;;;;;;14.97;12.57;;;;;;;18.35;48.94;99310.22;10459471;28;20317;-71
2023/05/21 05:50:08;;;;;;;16.53;13.73;;;;;;;17.36;51.19;99309.56;10470514;28;20239;-69
2023/05/21 05:55:10;;;;;;;14.30;12.53;;;;;;;18.62;48.51;99328.50;10479035;28;20219;-67
2023/05/21 06:00:13;;;;;;;13.93;12.43;;;;;;;18.80;49.60;99346.38;10461776;28;20722;-67
2023/05/21 06:05:15;;;;;;;15.97;12.33;;;;;;;18.38;49.76;99307.03;10472969;28;20326;-70
2023/05/21 06:10:19;;;;;;;13.93;11.97;;;;;;;16.97;52.08;99285.03;10444254;28;20250;-66
2023/05/21 06:15:21;;;;;;;13.73;11.57;;;;;;;19.24;48.30;99359.97;10471182;28;20302;-70
2023/05/21 06:20:22;;;;;;;15.47;11.60;;;;;;;17.06;51.44;99244.09;10475018;28;20235;-68
2023/05/21 06:25:24;;;;;;;13.57;11.70;;;;;;;16.32;53.52;99258.19;10470151;28;20241;-69
2023/05/21 06:30:26;;;;;;;12.17;10.70;;;;;;;18.60;49.82;99285.38;10465869;28;20775;-69
2023/05/21 06:35:27;;;;;;;12.73;11.27;;;;;;;19.38;49.07;99342.25;10473885;28;20231;-69
2023/05/21 06:40:29;;;;;;;12.57;11.13;;;;;;;18.26;50.73;99301.66;10468594;28;20313;-69
2023/05/21 06:45:31;;;;;;;13.07;11.00;;;;;;;19.38;48.66;99315.13;10474016;28;20227;-69
2023/05/21 06:50:32;;;;;;;13.40;12.00;;;;;;;18.41;49.67;99246.94;10470633;28;20227;-68
2023/05/21 06:55:35;;;;;;;12.97;11.20;;;;;;;18.89;49.91;99273.56;10473066;28;20230;-68
2023/05/21 07:00:36;;;;;;;12.80;11.50;;;;;;;18.18;50.42;99249.81;10472834;28;20272;-69
2023/05/21 07:05:38;;;;;;;13.83;11.07;;;;;;;19.32;49.67;99302.56;10472554;28;20306;-67
2023/05/21 07:10:41;;;;;;;12.47;11.10;;;;;;;19.45;49.20;99303.25;10472956;28;20795;-68
2023/05/21 07:15:42;;;;;;;13.10;11.43;;;;;;;18.05;51.14;99275.34;10475114;28;20291;-69
2023/05/21 07:20:44;;;;;;;13.00;11.10;;;;;;;18.58;50.31;99270.47;10471565;28;20627;-68
2023/05/21 07:25:46;;;;;;;12.37;11.07;;;;;;;20.75;47.10;99309.47;10474069;28;20288;-69
2023/05/21 07:30:48;;;;;;;12.90;10.90;;;;;;;19.16;49.27;99279.06;10480728;28;20261;-69
2023/05/21 07:35:50;;;;;;;13.70;11.07;;;;;;;18.45;49.64;99229.09;10470295;28;20273;-69
2023/05/21 07:40:51;;;;;;;12.83;11.53;;;;;;;18.13;51.49;99295.78;10475376;28;20326;-69
2023/05/21 07:45:53;;;;;;;12.63;11.33;;;;;;;18.12;51.44;99267.03;10473968;28;20314;-69
2023/05/21 07:50:57;;;;;;;15.40;11.80;;;;;;;18.02;50.79;99235.25;10472732;28;20318;-69
2023/05/21 07:55:59;;;;;;;13.27;11.73;;;;;;;18.60;50.69;99263.72;10479365;28;20220;-69
2023/05/21 08:01:01;;;;;;;13.63;11.33;;;;;;;19.38;48.56;99195.78;10479205;28;20284;-68
2023/05/21 08:06:03;;;;;;;13.05;11.07;;;;;;;19.10;49.04;99180.56;10473212;28;20240;-69
2023/05/21 08:11:05;;;;;;;12.80;11.50;;;;;;;17.94;51.80;99227.53;10476085;28;20232;-68
2023/05/21 08:16:06;;;;;;;13.40;11.63;;;;;;;18.21;51.50;99249.34;10474225;28;20737;-69
2023/05/21 08:21:08;;;;;;;14.07;11.23;;;;;;;20.02;48.73;99228.59;10476321;28;20241;-69
2023/05/21 08:26:10;;;;;;;14.30;11.30;;;;;;;19.52;49.85;99236.03;10474175;28;20256;-69
2023/05/21 08:31:12;;;;;;;12.45;11.15;;;;;;;19.98;48.49;99203.03;10466866;28;20230;-68
2023/05/21 08:36:14;;;;;;;13.77;11.47;;;;;;;19.84;48.80;99199.94;10464675;28;20227;-68
2023/05/21 08:41:20;;;;;;;13.23;11.38;;;;;;;19.74;49.57;99212.38;10468953;28;20264;-69
2023/05/21 08:46:23;;;;;;;12.57;10.93;;;;;;;20.53;48.28;99228.94;10461518;28;20334;-69
2023/05/21 08:51:25;;;;;;;12.55;11.25;;;;;;;19.57;49.28;99208.97;10469281;28;20228;-69
2023/05/21 08:56:30;;;;;;;14.80;10.60;;;;;;;21.94;45.72;99243.44;10471601;28;20236;-69
2023/05/21 09:01:33;;;;;;;12.13;10.27;;;;;;;20.85;46.61;99179.03;10467074;28;20238;-69
2023/05/21 09:06:36;;;;;;;16.48;10.23;;;;;;;20.98;47.44;99181.25;10472909;28;20219;-69
2023/05/21 09:11:38;;;;;;;12.48;10.35;;;;;;;20.31;46.88;99132.09;10467062;28;20232;-69
2023/05/21 09:16:40;;;;;;;11.95;10.60;;;;;;;21.65;46.22;99207.75;10472818;28;20224;-69
2023/05/21 09:21:42;;;;;;;11.32;10.07;;;;;;;21.39;47.23;99175.06;10468538;28;20267;-69
2023/05/21 09:26:44;;;;;;;11.73;10.15;;;;;;;21.00;46.01;99113.00;10478760;28;20266;-69
2023/05/21 09:31:46;;;;;;;12.20;9.80;;;;;;;21.74;46.21;99146.22;10473062;28;20241;-69
2023/05/21 09:36:48;;;;;;;11.18;10.07;;;;;;;22.17;45.45;99160.31;10457182;28;20318;-69
2023/05/21 09:41:50;;;;;;;11.48;8.95;;;;;;;21.71;45.59;99158.47;10472770;28;20672;-69
2023/05/21 09:46:57;;;;;;;11.10;10.00;;;;;;;20.61;45.87;99105.28;10476220;28;20318;-69
2023/05/21 09:51:59;;;;;;;11.20;9.18;;;;;;;22.12;45.16;99150.25;10474388;28;20246;-71
2023/05/21 09:57:01;;;;;;;10.98;9.52;;;;;;;21.31;45.57;99137.50;10471912;28;20227;-69
2023/05/21 10:02:18;;;;;;;10.25;9.25;;;;;;;22.00;45.33;99117.06;10467903;28;20228;-69
2023/05/21 10:07:27;;;;;;;11.60;9.77;;;;;;;22.12;45.17;99109.38;10472646;28;20314;-70
2023/05/21 10:12:31;;;;;;;10.90;9.80;;;;;;;22.93;43.55;99133.81;10477185;28;20231;-69
2023/05/21 10:17:34;;;;;;;10.73;9.63;;;;;;;22.59;44.20;99104.56;10469862;28;20334;-68
2023/05/21 10:22:36;;;;;;;11.05;9.80;;;;;;;22.97;43.69;99095.84;10475203;28;20292;-68
2023/05/21 10:27:38;;;;;;;10.80;9.70;;;;;;;21.63;45.51;99153.59;10471357;28;20228;-69
2023/05/21 10:32:42;;;;;;;11.05;9.93;;;;;;;21.69;44.61;99089.03;10472906;28;20238;-68
2023/05/21 10:37:45;;;;;;;15.25;9.43;;;;;;;22.57;44.02;99071.31;10473103;28;21044;-68
2023/05/21 10:43:34;;;;;;;10.40;9.27;;;;;;;23.07;42.96;99091.16;10463330;28;20791;-69
2023/05/21 10:48:57;;;;;;;10.35;8.80;;;;;;;23.19;43.22;99062.69;10427971;28;20227;-69
2023/05/21 10:54:02;;;;;;;9.98;8.98;;;;;;;23.40;42.58;99068.78;10467201;28;20223;-68
2023/05/21 10:59:39;;;;;;;9.80;8.80;;;;;;;22.87;43.33;99072.19;10474203;28;20699;-67
2023/05/21 11:06:26;;;;;;;10.07;9.02;;;;;;;20.71;47.29;99131.69;10489483;27;20922;-67
2023/05/21 11:11:50;;;;;;;9.07;8.18;;;;;;;21.02;46.26;99095.34;10463072;28;20257;-68
2023/05/21 11:16:52;;;;;;;10.13;8.85;;;;;;;20.44;46.10;99124.53;10458337;28;20910;-69
2023/05/21 11:21:54;;;;;;;9.68;8.68;;;;;;;20.07;46.89;99141.72;10460294;28;20314;-69
2023/05/21 11:26:57;;;;;;;9.73;8.55;;;;;;;21.99;45.34;99095.53;10460519;28;20229;-66
2023/05/21 11:32:01;;;;;;;11.98;8.57;;;;;;;22.36;45.05;99106.00;10450210;28;20219;-71
2023/05/21 11:37:28;;;;;;;9.52;8.52;;;;;;;21.87;44.47;99093.09;10460491;28;20271;-69
2023/05/21 11:42:37;;;;;;;10.05;8.85;;;;;;;21.86;45.49;99096.91;10463692;28;20266;-70
2023/05/21 11:47:39;;;;;;;10.30;8.55;;;;;;;22.16;45.79;99096.81;10457882;28;20244;-67
2023/05/21 11:52:41;;;;;;;9.55;8.18;;;;;;;22.69;45.30;99060.06;10460382;28;20236;-69
2023/05/21 11:57:43;;;;;;;9.10;7.97;;;;;;;22.63;44.98;99048.34;10461276;28;20288;-67
2023/05/21 12:02:52;;;;;;;9.57;8.00;;;;;;;22.50;44.39;99074.34;10448876;28;20885;-68
2023/05/21 12:07:55;;;;;;;8.88;7.85;;;;;;;22.45;44.76;99033.44;10454478;28;20322;-68
2023/05/21 12:12:57;;;;;;;13.65;8.30;;;;;;;22.22;44.79;99072.25;10456455;28;20286;-71
2023/05/21 12:17:59;;;;;;;9.82;7.85;;;;;;;23.21;44.51;99044.94;10426644;28;20273;-71
2023/05/21 12:23:01;;;;;;;8.68;7.88;;;;;;;23.49;43.75;99030.75;10428060;28;20240;-68
2023/05/21 12:28:04;;;;;;;9.32;8.43;;;;;;;23.76;42.66;99022.00;10429160;28;20266;-68
2023/05/21 12:33:05;;;;;;;9.35;8.10;;;;;;;23.79;43.08;99030.44;10427426;28;20231;-66
2023/05/21 12:38:08;;;;;;;8.82;7.93;;;;;;;23.34;43.38;98996.22;10421370;28;21046;-66
2023/05/21 12:43:11;;;;;;;8.63;7.65;;;;;;;23.49;42.60;99020.63;10433717;28;20693;-66
2023/05/21 12:48:12;;;;;;;9.40;7.70;;;;;;;23.23;44.09;99020.91;10429492;28;20343;-64
2023/05/21 12:53:14;;;;;;;9.23;8.32;;;;;;;24.16;42.21;98995.31;10429895;28;20696;-65
2023/05/21 12:58:20;;;;;;;10.10;7.97;;;;;;;23.94;42.48;99013.03;10419784;28;20205;-65
2023/05/21 13:03:22;;;;;;;9.05;8.15;;;;;;;24.12;42.48;98986.84;10421145;28;20340;-68
2023/05/21 13:08:24;;;;;;;9.27;7.75;;;;;;;23.72;43.05;99027.25;10422104;28;20208;-66
2023/05/21 13:13:26;;;;;;;8.80;7.45;;;;;;;24.34;41.84;98993.66;10430858;28;20311;-65
2023/05/21 13:18:27;;;;;;;10.38;7.97;;;;;;;23.22;42.21;98967.41;10427988;28;20676;-67
2023/05/21 13:23:29;;;;;;;12.13;7.85;;;;;;;23.79;42.70;99026.88;10431925;28;20238;-66
2023/05/21 13:28:31;;;;;;;8.00;7.20;;;;;;;23.88;43.08;99022.38;10425144;28;20230;-68
2023/05/21 13:33:32;;;;;;;8.15;6.75;;;;;;;24.50;41.34;98975.91;10431117;28;20259;-66
2023/05/21 13:38:34;;;;;;;9.90;6.88;;;;;;;23.74;42.21;99040.59;10427587;28;20722;-66
2023/05/21 13:43:36;;;;;;;9.23;6.57;;;;;;;22.57;42.97;99013.22;10428945;28;20899;-67
2023/05/21 13:48:38;;;;;;;8.40;6.82;;;;;;;23.92;42.17;98995.31;10414725;28;20236;-68
2023/05/21 13:53:40;;;;;;;9.00;7.20;;;;;;;23.05;42.21;98997.84;10417783;28;20354;-68
2023/05/21 13:58:42;;;;;;;6.70;6.00;;;;;;;24.22;41.43;99021.44;10420065;28;21161;-67
2023/05/21 14:03:44;;;;;;;6.53;5.93;;;;;;;23.94;42.15;98984.91;10426050;28;20633;-67
2023/05/21 14:08:45;;;;;;;7.43;6.63;;;;;;;23.39;43.13;98977.88;10419394;28;20220;-69
2023/05/21 14:13:47;;;;;;;9.50;6.47;;;;;;;24.06;41.65;98977.09;10422850;28;20354;-69
2023/05/21 14:18:49;;;;;;;9.25;7.10;;;;;;;23.60;42.59;98989.38;10429886;28;20264;-70
2023/05/21 14:23:51;;;;;;;7.53;6.47;;;;;;;23.00;42.67;99027.91;10425715;28;20240;-70
2023/05/21 14:28:53;;;;;;;9.07;6.68;;;;;;;23.58;42.33;99002.53;10429379;28;20227;-69
2023/05/21 14:33:54;;;;;;;10.20;6.95;;;;;;;22.52;43.49;99025.81;10419126;28;20355;-68
2023/05/21 14:38:56;;;;;;;7.88;7.00;;;;;;;24.08;42.79;98987.72;10416312;28;20228;-69
2023/05/21 14:43:58;;;;;;;7.47;6.45;;;;;;;23.96;41.94;98983.50;10419776;28;20235;-68
2023/05/21 14:48:59;;;;;;;9.20;6.07;;;;;;;23.66;41.32;98953.84;10424847;28;20227;-70
2023/05/21 14:54:01;;;;;;;8.07;5.88;;;;;;;23.43;41.82;99036.25;10429684;28;20248;-70
2023/05/21 14:59:03;;;;;;;6.88;5.60;;;;;;;24.02;40.87;99011.56;10427318;28;20238;-70
2023/05/21 15:04:06;;;;;;;5.97;5.38;;;;;;;23.91;39.13;98975.38;10420934;28;20282;-71
2023/05/21 15:09:08;;;;;;;6.20;4.70;;;;;;;24.86;38.29;98958.94;10425521;28;20621;-72
2023/05/21 15:14:11;;;;;;;6.88;5.47;;;;;;;25.42;38.54;98940.69;10423684;28;20319;-71
2023/05/21 15:19:12;;;;;;;7.47;4.90;;;;;;;25.14;38.08;98956.25;10424241;28;20311;-70
2023/05/21 15:24:14;;;;;;;6.43;4.88;;;;;;;25.63;36.74;98929.31;10429290;28;20240;-69
2023/05/21 15:29:16;;;;;;;7.13;5.03;;;;;;;25.20;37.90;98943.28;10427897;28;20285;-71
2023/05/21 15:34:17;;;;;;;6.20;5.50;;;;;;;23.90;38.84;98951.88;10426105;28;20612;-71
2023/05/21 15:39:19;;;;;;;5.53;5.00;;;;;;;24.57;38.57;98993.88;10430782;28;20326;-71
2023/05/21 15:44:21;;;;;;;7.88;5.85;;;;;;;24.29;38.06;98996.47;10426016;28;20346;-70
2023/05/21 15:49:23;;;;;;;6.20;5.40;;;;;;;24.97;38.00;98947.81;10428293;28;20236;-69
2023/05/21 15:54:28;;;;;;;5.88;5.28;;;;;;;25.74;37.98;98947.16;10435270;28;20232;-71
2023/05/21 15:59:30;;;;;;;6.50;5.45;;;;;;;25.01;38.17;98963.31;10431697;28;20232;-70
2023/05/21 16:04:32;;;;;;;5.38;4.88;;;;;;;24.44;38.83;98987.22;10434984;28;20259;-71
2023/05/21 16:09:36;;;;;;;7.22;5.55;;;;;;;24.89;38.64;98941.13;10429482;28;20761;-68
2023/05/21 16:14:38;;;;;;;5.90;5.10;;;;;;;24.22;38.65;98971.44;10428697;28;20286;-71
2023/05/21 16:19:39;;;;;;;6.70;5.50;;;;;;;24.90;38.08;98938.09;10421887;28;20246;-70
2023/05/21 16:24:41;;;;;;;7.78;4.70;;;;;;;25.25;37.84;98965.94;10425687;28;20614;-68
2023/05/21 16:29:43;;;;;;;6.95;5.32;;;;;;;25.31;38.18;98974.84;10419074;28;20232;-71
2023/05/21 16:34:44;;;;;;;7.43;5.47;;;;;;;25.35;37.49;98929.31;10429202;28;20239;-70
2023/05/21 16:39:46;;;;;;;5.45;4.93;;;;;;;25.40;37.86;98959.34;10429846;28;20236;-70
2023/05/21 16:44:48;;;;;;;5.97;5.25;;;;;;;25.14;37.86;98966.41;10425932;28;20261;-69
2023/05/21 16:49:49;;;;;;;7.82;5.20;;;;;;;25.12;37.99;98991.34;10428938;28;20231;-69
2023/05/21 16:54:51;;;;;;;7.57;5.30;;;;;;;24.10;38.51;98948.06;10432012;28;20228;-69
2023/05/21 16:59:53;;;;;;;7.88;5.20;;;;;;;25.40;37.80;98983.97;10427253;28;20715;-69
2023/05/21 17:04:55;;;;;;;6.07;5.45;;;;;;;26.18;36.73;98955.78;10422675;28;20239;-71
2023/05/21 17:09:56;;;;;;;7.18;5.45;;;;;;;25.41;37.57;98960.16;10425482;28;20243;-69
2023/05/21 17:14:58;;;;;;;5.43;4.93;;;;;;;26.33;37.36;98960.13;10432803;28;20272;-69
2023/05/21 17:20:01;;;;;;;7.57;5.47;;;;;;;26.34;37.26;98948.06;10430706;28;20239;-71
2023/05/21 17:25:02;;;;;;;6.07;4.88;;;;;;;26.71;37.09;98924.91;10425125;28;20728;-71
2023/05/21 17:30:05;;;;;;;6.03;4.95;;;;;;;25.90;37.87;98966.03;10426046;28;20335;-68
2023/05/21 17:35:07;;;;;;;6.07;5.47;;;;;;;26.58;37.11;98932.06;10427811;28;20256;-72
2023/05/21 17:40:09;;;;;;;7.30;5.63;;;;;;;26.73;37.05;98949.31;10420517;28;20665;-70
2023/05/21 17:45:11;;;;;;;7.50;4.95;;;;;;;26.44;37.09;98949.75;10421716;28;20715;-72
2023/05/21 17:50:13;;;;;;;6.28;5.18;;;;;;;26.62;36.82;98942.44;10424568;28;20742;-69
2023/05/21 17:55:15;;;;;;;6.93;6.22;;;;;;;26.71;37.04;98962.53;10420577;28;20955;-71
2023/05/21 18:00:17;;;;;;;7.53;5.60;;;;;;;26.60;37.18;98989.38;10427307;28;20263;-71
2023/05/21 18:05:19;;;;;;;12.85;5.88;;;;;;;25.94;37.83;98972.50;10424272;28;20232;-69
2023/05/21 18:10:20;;;;;;;5.93;5.22;;;;;;;25.82;38.31;99003.97;10425000;28;20227;-69
2023/05/21 18:15:22;;;;;;;7.75;5.72;;;;;;;26.09;37.66;98998.78;10429846;28;20310;-68
2023/05/21 18:20:24;;;;;;;6.60;5.85;;;;;;;25.72;37.92;98995.97;10426795;28;20821;-70
2023/05/21 18:25:26;;;;;;;6.93;5.32;;;;;;;26.19;37.19;98991.13;10434264;28;20236;-71
2023/05/21 18:30:28;;;;;;;7.65;5.70;;;;;;;26.14;37.27;99004.13;10431111;28;20255;-70
2023/05/21 18:35:29;;;;;;;5.88;5.28;;;;;;;25.75;37.72;99017.28;10431500;28;20315;-70
2023/05/21 18:40:32;;;;;;;8.45;5.72;;;;;;;25.46;37.92;99012.88;10434646;28;20310;-70
2023/05/21 18:45:33;;;;;;;6.22;5.63;;;;;;;25.30;38.53;99033.44;10435088;28;20236;-70
2023/05/21 18:50:36;;;;;;;6.20;5.22;;;;;;;25.20;38.83;99036.34;10427883;28;20898;-71
2023/05/21 18:55:39;;;;;;;8.27;6.25;;;;;;;25.73;37.95;99033.22;10429999;28;20635;-70
2023/05/21 19:00:42;;;;;;;6.28;5.13;;;;;;;25.74;37.70;99042.25;10430422;28;20274;-69
2023/05/21 19:05:43;;;;;;;6.68;5.70;;;;;;;25.52;38.31;99030.03;10433114;28;20255;-70
2023/05/21 19:10:45;;;;;;;6.03;5.38;;;;;;;25.87;37.92;99038.69;10430400;28;20654;-69
2023/05/21 19:15:47;;;;;;;8.70;5.18;;;;;;;24.88;39.08;99025.13;10431438;28;20239;-70
2023/05/21 19:20:49;;;;;;;7.60;5.72;;;;;;;23.14;42.48;99084.56;10425197;28;20738;-70
2023/05/21 19:25:51;;;;;;;7.47;6.25;;;;;;;24.30;40.52;99067.25;10434381;28;20620;-70
2023/05/21 19:30:52;;;;;;;6.30;5.70;;;;;;;24.04;40.48;99068.66;10435819;28;20314;-70
2023/05/21 19:35:54;;;;;;;6.63;5.90;;;;;;;23.21;43.14;99110.44;10437615;28;20752;-71
2023/05/21 19:40:56;;;;;;;8.00;6.25;;;;;;;24.50;41.44;99089.97;10433007;28;20262;-71
2023/05/21 19:45:57;;;;;;;8.27;6.70;;;;;;;24.60;42.18;99084.34;10438699;28;20231;-71
2023/05/21 19:50:59;;;;;;;7.32;6.63;;;;;;;24.71;42.09;99080.38;10436339;28;20259;-71
2023/05/21 19:56:01;;;;;;;6.22;5.63;;;;;;;24.47;42.01;99079.59;10439178;28;20234;-69
2023/05/21 20:01:05;;;;;;;7.25;6.53;;;;;;;24.73;41.99;99101.94;10435787;28;20894;-71
2023/05/21 20:06:06;;;;;;;9.20;6.47;;;;;;;23.96;42.60;99094.72;10438149;28;20234;-71
2023/05/21 20:11:08;;;;;;;6.78;6.00;;;;;;;22.49;44.03;99131.84;10439400;28;20255;-68
2023/05/21 20:16:11;;;;;;;8.10;7.30;;;;;;;24.13;41.91;99119.63;10432720;28;20239;-70
2023/05/21 20:21:17;;;;;;;11.43;6.32;;;;;;;24.04;41.96;99117.81;10436769;28;20239;-71
2023/05/21 20:26:20;;;;;;;8.35;6.22;;;;;;;23.76;42.24;99125.78;10440038;28;20835;-71
2023/05/21 20:31:24;;;;;;;8.43;6.13;;;;;;;23.66;41.95;99132.16;10435107;28;20293;-71
2023/05/21 20:36:25;;;;;;;8.20;6.47;;;;;;;23.96;42.00;99157.56;10422441;28;20267;-71
2023/05/21 20:41:34;;;;;;;7.63;6.82;;;;;;;22.87;43.30;99159.47;10425678;28;20324;-71
2023/05/21 20:46:39;;;;;;;9.52;6.85;;;;;;;23.02;43.68;99167.56;10435680;28;20609;-71
2023/05/21 20:51:41;;;;;;;9.45;7.05;;;;;;;22.77;44.33;99205.91;10435081;28;20250;-71
2023/05/21 21:01:52;;;;;;;10.10;7.65;;;;;;;22.80;44.80;99188.97;10254616;28;20251;-36
2023/05/21 21:06:54;;;;;;;10.15;7.95;;;;;;;23.00;44.01;99177.94;10270779;28;20293;-36
2023/05/21 21:11:59;;;;;;;9.23;8.25;;;;;;;22.15;44.97;99190.56;10328719;23;20836;-68
2023/05/21 21:17:11;;;;;;;8.48;7.53;;;;;;;21.14;46.45;99189.44;10354401;28;20236;-68
2023/05/21 21:22:14;;;;;;;8.85;7.97;;;;;;;21.33;45.72;99242.25;10354587;28;20245;-68
2023/05/21 21:27:16;;;;;;;11.30;8.10;;;;;;;22.90;43.99;99192.44;10354353;28;20315;-68
2023/05/21 21:32:18;;;;;;;10.02;7.65;;;;;;;20.85;46.75;99242.41;10353654;28;20257;-68
2023/05/21 21:37:20;;;;;;;9.40;7.45;;;;;;;20.59;46.61;99227.84;10354896;28;20660;-68
2023/05/21 21:42:22;;;;;;;10.10;8.20;;;;;;;20.20;47.31;99285.22;10352571;28;20229;-68
2023/05/21 21:47:24;;;;;;;8.55;7.57;;;;;;;20.70;46.40;99269.50;10352832;28;20257;-67
2023/05/21 21:52:26;;;;;;;10.27;7.53;;;;;;;21.26;45.23;99252.59;10351734;28;20234;-68
2023/05/21 21:57:28;;;;;;;10.10;8.63;;;;;;;21.20;45.48;99249.03;10352913;28;20734;-67
2023/05/21 22:02:30;;;;;;;9.77;7.90;;;;;;;22.56;44.15;99235.16;10351630;28;20695;-68
2023/05/21 22:07:33;;;;;;;8.32;7.53;;;;;;;21.91;45.25;99246.66;10355295;28;20813;-68
2023/05/21 22:12:35;;;;;;;9.38;7.88;;;;;;;21.63;45.19;99237.97;10352923;28;20882;-68
2023/05/21 22:17:37;;;;;;;9.18;8.27;;;;;;;20.76;46.44;99273.06;10347901;28;20237;-68
2023/05/21 22:22:38;;;;;;;8.95;7.82;;;;;;;21.27;46.13;99277.88;10349651;28;20233;-68
2023/05/21 22:27:41;;;;;;;8.93;8.02;;;;;;;21.12;46.49;99294.97;10352120;28;20233;-68
2023/05/21 22:32:43;;;;;;;11.02;9.93;;;;;;;20.63;47.00;99305.09;10347753;28;20679;-68
2023/05/21 22:37:45;;;;;;;11.88;9.23;;;;;;;20.00;48.13;99331.22;10353079;28;20241;-68
2023/05/21 22:42:47;;;;;;;9.48;8.48;;;;;;;19.08;49.72;99333.75;10350250;28;20271;-67
2023/05/21 22:47:50;;;;;;;10.07;8.32;;;;;;;20.72;46.81;99310.84;10346655;28;20653;-67
2023/05/21 22:52:52;;;;;;;10.60;9.60;;;;;;;20.07;47.59;99320.94;10353251;28;20869;-68
2023/05/21 22:57:54;;;;;;;11.00;9.90;;;;;;;18.94;49.83;99306.19;10350391;28;20272;-68
2023/05/21 23:02:56;;;;;;;10.50;9.40;;;;;;;20.07;48.38;99334.53;10350296;28;20257;-68
2023/05/21 23:07:57;;;;;;;11.57;9.23;;;;;;;20.49;48.16;99325.63;10351147;28;20607;-68
2023/05/21 23:12:59;;;;;;;11.63;9.95;;;;;;;20.95;46.91;99281.59;10346487;28;20276;-67
2023/05/21 23:18:02;;;;;;;10.15;8.63;;;;;;;20.60;48.04;99313.75;10351432;28;20320;-67